createdAt,value
2017-08-01T10:34:59.662Z,148.00
2017-08-01T11:19:34.485Z,112.00
2017-08-01T11:20:34.314Z,108.00
2017-08-01T11:21:34.305Z,104.00
2017-08-01T11:22:34.220Z,124.00
2017-08-01T11:23:34.151Z,180.00
2017-08-01T11:24:34.135Z,148.00
2017-08-01T11:25:33.834Z,132.00
2017-08-01T11:26:33.803Z,120.00
2017-08-01T11:27:33.713Z,116.00
2017-08-01T11:28:33.622Z,116.00
2017-08-01T11:29:33.563Z,112.00
2017-08-01T11:30:33.525Z,112.00
2017-08-01T11:31:33.381Z,108.00
2017-08-01T11:32:33.320Z,104.00
2017-08-01T11:33:33.205Z,112.00
2017-08-01T11:34:33.144Z,104.00
2017-08-01T11:35:33.220Z,112.00
2017-08-01T11:36:32.980Z,176.00
2017-08-01T11:37:33.049Z,124.00
2017-08-01T11:38:32.841Z,112.00
2017-08-01T11:39:32.936Z,124.00
2017-08-01T11:40:33.057Z,100.00
2017-08-01T11:41:32.660Z,116.00
2017-08-01T11:42:32.527Z,64.00
2017-08-01T13:45:26.651Z,700.00
2017-08-01T13:46:26.531Z,712.00
2017-08-01T13:47:26.434Z,624.00
2017-08-01T13:48:26.411Z,592.00
2017-08-01T13:49:26.300Z,560.00
2017-08-01T13:50:26.202Z,504.00
2017-08-01T13:51:26.131Z,480.00
2017-08-01T13:52:26.052Z,432.00
2017-08-01T13:53:25.945Z,408.00
2017-08-01T13:54:25.966Z,384.00
2017-08-01T13:55:25.827Z,424.00
2017-08-01T13:56:25.746Z,520.00
2017-08-01T13:57:25.641Z,588.00
2017-08-01T13:58:25.576Z,672.00
2017-08-01T13:59:25.613Z,748.00
2017-08-01T14:00:25.427Z,740.00
2017-08-01T14:01:25.352Z,804.00
2017-08-01T14:02:25.259Z,700.00
2017-08-01T14:03:25.195Z,568.00
2017-08-01T14:04:25.039Z,572.00
2017-08-01T14:05:25.042Z,720.00
2017-08-01T14:06:24.820Z,776.00
2017-08-01T14:07:24.896Z,732.00
2017-08-01T14:08:24.828Z,728.00
2017-08-01T14:09:24.807Z,684.00
2017-08-01T14:10:24.658Z,620.00
2017-08-01T14:11:24.584Z,592.00
2017-08-01T14:12:24.514Z,608.00
2017-08-01T14:13:24.439Z,680.00
2017-08-01T14:14:24.358Z,736.00
2017-08-01T14:15:24.326Z,772.00
2017-08-01T14:16:24.202Z,788.00
2017-08-01T14:17:24.161Z,736.00
2017-08-01T14:18:24.135Z,760.00
2017-08-01T14:19:23.982Z,708.00
2017-08-01T14:20:23.943Z,716.00
2017-08-01T14:21:23.844Z,728.00
2017-08-01T14:22:23.617Z,728.00
2017-08-01T14:23:23.664Z,740.00
